• Join FlightAware (Why Join?)
  • Login
  • US Flag 
01:49AM EST


 

Airport Tracker/Info


-or-


 

Live Flight TrackerFlight Track Log ✈ ASQ5240 ✈ 30-Jun-2013 ✈ KICT - KATL

Flight Track Log - Related Links

Times and Time Zones

All times are in EDT time to prevent confusion due to time zone crossing. See the ASQ5240 flight status page for this flight to view local times or setup timezone preferences in your user account.

Time Position Orientation Groundspeed Altitude Reporting Facility
EDT Latitude Longitude Course Direction KTS MPH feet Rate Location/Type
03:18PM 37.7006 -97.3972 24° Northeast 182 209 3,100  Level Kansas City Center
03:19PM 37.6814 -97.3078 105° East 257 296 6,300 2,400 Climbing Kansas City Center
03:21PM 37.6478 -97.2033 112° Southeast 256 295 9,100 2,100 Climbing Kansas City Center
03:22PM 37.6156 -97.1061 113° Southeast 293 337 11,400 1,980 Climbing Kansas City Center
03:23PM 37.5803 -97.0003 113° Southeast 322 371 13,300 1,740 Climbing Kansas City Center
03:24PM 37.5431 -96.8861 112° Southeast 347 399 15,000 1,980 Climbing Kansas City Center
03:25PM 37.4964 -96.7369 111° Southeast 377 434 17,500 1,980 Climbing Kansas City Center
03:26PM 37.4533 -96.6108 113° Southeast 388 447 19,100 1,560 Climbing Kansas City Center
03:27PM 37.4133 -96.4781 111° Southeast 402 463 20,800 1,500 Climbing Kansas City Center
03:28PM 37.3608 -96.3294 114° Southeast 416 479 22,300 1,140 Climbing Kansas City Center
03:29PM 37.3136 -96.1839 112° Southeast 439 505 23,200 960 Climbing Kansas City Center
03:30PM 37.2625 -96.0325 113° Southeast 462 532 24,300 960 Climbing Kansas City Center
03:31PM 37.2111 -95.8744 112° Southeast 480 552 25,200 900 Climbing Kansas City Center
03:32PM 37.1558 -95.7161 114° Southeast 489 563 26,200 960 Climbing Kansas City Center
03:33PM 37.1006 -95.5525 113° Southeast 501 577 27,200 1,380 Climbing Kansas City Center
03:34PM 37.0447 -95.3883 113° Southeast 507 583 29,100 1,620 Climbing Kansas City Center
03:35PM 36.9911 -95.2339 113° Southeast 490 564 30,600 1,080 Climbing Kansas City Center
03:36PM 36.9367 -95.0775 113° Southeast 486 559 31,400 660 Climbing Kansas City Center
03:37PM 36.8672 -94.8797 114° Southeast 507 583 32,000 480 Climbing Kansas City Center
03:38PM 36.8064 -94.7117 114° Southeast 523 602 32,500 480 Climbing Kansas City Center
03:39PM 36.7464 -94.5419 114° Southeast 529 609 33,000 480 Climbing Kansas City Center
03:40PM 36.6861 -94.3692 113° Southeast 538 619 33,500 480 Climbing Kansas City Center
03:41PM 36.6247 -94.1981 114° Southeast 539 620 34,000 480 Climbing Kansas City Center
03:43PM 36.5069 -93.8836 115° Southeast 532 612 34,900 300 Climbing Memphis Center
03:44PM 36.4469 -93.7133 114° Southeast 532 612 35,000  Climbing Memphis Center
03:45PM 36.3925 -93.5642 114° Southeast 526 605 35,000  Level Memphis Center
03:46PM 36.3344 -93.3944 113° Southeast 531 611 35,000 180 Level Memphis Center
03:47PM 36.2717 -93.2272 115° Southeast 526 605 35,400 420 Climbing Memphis Center
03:48PM 36.2089 -93.0528 114° Southeast 531 611 35,900 300 Climbing Memphis Center
03:49PM 36.1456 -92.8861 115° Southeast 531 611 36,000 120 Climbing Memphis Center
03:50PM 36.0861 -92.7225 114° Southeast 526 605 36,200 300 Climbing Memphis Center
03:51PM 36.0225 -92.5539 115° Southeast 531 611 36,700 360 Climbing Memphis Center
03:52PM 35.9608 -92.3906 115° Southeast 526 605 37,000 120 Climbing Memphis Center
03:53PM 35.8986 -92.2278 115° Southeast 526 605 37,000  Level Memphis Center
03:54PM 35.8364 -92.0650 115° Southeast 526 605 37,000  Level Memphis Center
03:55PM 35.7758 -91.9050 115° Southeast 521 600 37,000  Level Memphis Center
03:56PM 35.7172 -91.7481 115° Southeast 514 592 37,000  Level Memphis Center
03:57PM 35.6542 -91.5911 116° Southeast 509 586 37,000  Level Memphis Center
03:58PM 35.5953 -91.4344 115° Southeast 509 586 37,000  Level Memphis Center
03:59PM 35.5275 -91.2703 117° Southeast 509 586 37,000  Level Memphis Center
04:00PM 35.4703 -91.1142 114° Southeast 501 577 37,000 180 Level Memphis Center
04:01PM 35.4086 -90.9608 116° Southeast 493 567 37,400 420 Climbing Memphis Center
04:02PM 35.3467 -90.8050 116° Southeast 493 567 37,900 480 Climbing Memphis Center
04:03PM 35.2886 -90.6547 115° Southeast 488 562 38,400 480 Climbing Memphis Center
04:04PM 35.2283 -90.5069 117° Southeast 488 562 38,900 300 Climbing Memphis Center
04:05PM 35.1681 -90.3569 116° Southeast 483 556 39,000  Climbing Memphis Center
04:06PM 35.1075 -90.2072 116° Southeast 488 562 39,000  Level Memphis Center
04:07PM 35.0528 -90.0731 116° Southeast 488 562 39,000  Level Memphis Center
04:08PM 34.9981 -89.9058 112° Southeast 494 568 39,000  Level Memphis Center
04:09PM 34.9744 -89.7414 100° East 494 568 39,000  Level Memphis Center
04:10PM 34.9506 -89.5792 100° East 494 568 39,000  Level Memphis Center
04:11PM 34.9306 -89.3919 97° East 494 568 39,000  Level Memphis Center
04:12PM 34.9044 -89.2506 103° East 489 563 39,000  Level Memphis Center
04:13PM 34.8819 -89.0939 100° East 476 548 39,000  Level Memphis Center
04:14PM 34.8547 -88.9044 100° East 495 570 39,000  Level Memphis Center
04:15PM 34.8297 -88.7406 100° East 504 580 39,000 -540 Level Memphis Center
04:17PM 34.7884 -88.5438 100° East  Level FlightAware Approximate
04:17PM 34.7817 -88.4356 100° East 492 566 37,500  Level Memphis Center
04:18PM 34.7583 -88.2742 100° East 484 557 36,500 -1,260 Descending Memphis Center
04:19PM 34.7303 -88.1081 102° East 503 579 35,000 -1,500 Descending Memphis Center
04:20PM 34.7064 -87.9522 101° East 491 565 33,500 -1,020 Descending Memphis Center
04:21PM 34.6783 -87.7939 102° East 484 557 33,000 -300 Descending Memphis Center
04:22PM 34.6539 -87.6306 100° East 490 564 33,000 -540 Level Memphis Center
04:23PM 34.6164 -87.4525 104° East 490 564 32,000 -1,200 Descending Memphis Center
04:24PM 34.6014 -87.3419 99° East 487 560 30,800 -1,500 Descending Atlanta Center
04:25PM 34.5703 -87.1819 103° East 487 560 29,300 -900 Descending Atlanta Center
04:26PM 34.5408 -87.0194 102° East 487 560 29,000 -240 Descending Atlanta Center
04:27PM 34.5092 -86.8569 103° East 487 560 28,900 -600 Descending Atlanta Center
04:28PM 34.4686 -86.7069 108° East 481 554 27,800 -1,080 Descending Atlanta Center
04:29PM 34.4217 -86.5569 111° Southeast 476 548 26,800 -1,020 Descending Atlanta Center
04:30PM 34.3747 -86.4019 110° East 482 555 25,800 -1,020 Descending Atlanta Center
04:31PM 34.3275 -86.2447 110° East 487 560 24,800 -900 Descending Atlanta Center
04:32PM 34.2781 -86.0900 111° Southeast 487 560 24,000 -420 Descending Atlanta Center
04:33PM 34.2283 -85.9383 112° Southeast 492 566 24,000 -960 Level Atlanta Center
04:34PM 34.1825 -85.7892 110° East 492 566 22,100 -1,980 Descending Atlanta Center
04:35PM 34.1386 -85.6475 110° East 465 535 20,100 -2,160 Descending Atlanta Center
04:36PM 34.0883 -85.4961 112° Southeast 451 519 17,800 -2,160 Descending Atlanta Center
04:37PM 34.0481 -85.3650 110° East 429 494 15,800 -2,040 Descending Atlanta Center
04:38PM 34.0033 -85.2342 112° Southeast 418 481 13,800 -1,500 Descending Atlanta Center
04:39PM 33.9628 -85.1108 112° Southeast 413 475 12,900 -420 Descending Atlanta Center
04:40PM 33.9156 -85.0125 120° Southeast 363 418 13,000  Climbing Atlanta Center
04:41PM 33.8642 -84.9119 122° Southeast 343 395 12,900  Descending Atlanta Center
04:42PM 33.8333 -84.8167 111° Southeast 312 359 13,100  Climbing Atlanta TRACON
04:43PM 33.8000 -84.7333 116° Southeast 267 307 12,900 -540 Descending Atlanta TRACON
04:44PM 33.7667 -84.6500 116° Southeast 262 302 12,100 -480 Descending Atlanta TRACON
04:45PM 33.7333 -84.5667 116° Southeast 262 302 12,000 -840 Descending Atlanta TRACON
04:46PM 33.7333 -84.4833 90° East 280 322 10,500 -1,440 Descending Atlanta TRACON
04:47PM 33.7333 -84.3833 90° East 276 318 9,200 -1,500 Descending Atlanta TRACON
04:48PM 33.7333 -84.3000 90° East 260 299 7,700 -1,380 Descending Atlanta TRACON
04:49PM 33.7333 -84.2333 90° East 217 250 6,600 -1,320 Descending Atlanta TRACON
04:50PM 33.7333 -84.1500 90° East 206 237 5,000 -900 Descending Atlanta TRACON
04:51PM 33.6833 -84.1333 164° South 210 242 4,800 -480 Descending Atlanta TRACON
04:52PM 33.6500 -84.1833 231° Southwest 191 220 4,100 -540 Descending Atlanta TRACON
04:53PM 33.6500 -84.2500 270° West 189 217 3,700 -780 Descending Atlanta TRACON
04:54PM 33.6500 -84.3167 270° West 190 219 2,600 -1,020 Descending Atlanta TRACON
04:55PM 33.6500 -84.3667 270° West 160 184 1,700 -900 Descending Atlanta TRACON
04:57PM 33.6333 -84.4167 North  Level FlightAware Approximate
05:04PM 33.6367 -84.4279 North  Level Estimated
05:05PM 33.6367 -84.4279 North  Level Estimated